createdAt,value
2018-12-15T00:01:54.719Z,0.43
2018-12-15T00:04:23.486Z,0.54
2018-12-15T00:06:51.952Z,0.53
2018-12-15T00:09:20.520Z,0.44
2018-12-15T00:11:50.234Z,0.42
2018-12-15T00:14:19.567Z,0.51
2018-12-15T00:16:48.377Z,0.44
2018-12-15T00:19:18.869Z,0.32
2018-12-15T00:21:47.304Z,0.46
2018-12-15T00:24:16.566Z,0.46
2018-12-15T00:26:45.267Z,0.41
2018-12-15T00:29:15.120Z,0.33
2018-12-15T00:31:45.333Z,0.33
2018-12-15T00:34:14.415Z,0.33
2018-12-15T00:36:43.594Z,0.23
2018-12-15T00:39:13.122Z,0.12
2018-12-15T00:41:44.167Z,0.20
2018-12-15T00:44:14.521Z,0.18
2018-12-15T00:46:43.360Z,0.12
2018-12-15T00:49:11.810Z,0.15
2018-12-15T00:51:42.371Z,0.19
2018-12-15T00:54:13.475Z,0.20
2018-12-15T00:56:42.633Z,0.23
2018-12-15T00:59:11.718Z,0.20
2018-12-15T01:01:41.812Z,0.25
2018-12-15T01:04:10.716Z,0.28
2018-12-15T01:06:40.704Z,0.36
2018-12-15T01:09:09.952Z,0.33
2018-12-15T01:11:38.690Z,0.30
2018-12-15T01:14:07.390Z,0.20
2018-12-15T01:16:36.257Z,0.24
2018-12-15T01:19:05.534Z,0.30
2018-12-15T01:21:34.280Z,0.21
2018-12-15T01:24:02.733Z,0.21
2018-12-15T01:26:34.980Z,0.27
2018-12-15T01:29:04.068Z,0.28
2018-12-15T01:31:32.551Z,0.19
2018-12-15T01:34:02.756Z,0.24
2018-12-15T01:36:32.417Z,0.24
2018-12-15T01:39:00.875Z,0.20
2018-12-15T01:41:30.869Z,0.16
2018-12-15T01:44:00.393Z,0.15
2018-12-15T01:46:28.887Z,0.19
2018-12-15T01:48:58.750Z,0.18
2018-12-15T01:51:27.213Z,0.16
2018-12-15T01:53:55.635Z,0.26
2018-12-15T01:56:25.326Z,0.21
2018-12-15T01:58:53.785Z,0.18
2018-12-15T02:01:22.392Z,0.18
2018-12-15T02:03:51.490Z,0.11
2018-12-15T02:06:21.448Z,0.13
2018-12-15T02:08:50.175Z,0.17
2018-12-15T02:11:19.630Z,0.16
2018-12-15T02:13:48.123Z,0.28
2018-12-15T02:16:16.558Z,0.20
2018-12-15T02:18:46.884Z,0.23
2018-12-15T02:21:16.149Z,0.22
2018-12-15T02:23:44.868Z,0.13
2018-12-15T02:26:15.479Z,0.17
2018-12-15T02:28:43.920Z,0.09
2018-12-15T02:31:12.362Z,0.25
2018-12-15T02:33:41.417Z,0.25
2018-12-15T02:36:10.197Z,0.22
2018-12-15T02:38:39.574Z,0.20
2018-12-15T02:41:08.411Z,0.27
2018-12-15T02:43:37.350Z,0.03
2018-12-15T02:46:06.496Z,0.17
2018-12-15T02:48:35.189Z,0.13
2018-12-15T02:51:04.270Z,0.09
2018-12-15T02:53:33.674Z,0.14
2018-12-15T02:56:03.699Z,0.22
2018-12-15T02:58:34.219Z,0.27
2018-12-15T03:01:03.679Z,0.31
2018-12-15T03:03:32.587Z,0.33
2018-12-15T03:06:01.243Z,0.42
2018-12-15T03:08:30.129Z,0.33
2018-12-15T03:10:58.562Z,0.21
2018-12-15T03:13:27.030Z,0.28
2018-12-15T03:15:57.355Z,0.33
2018-12-15T03:18:27.357Z,0.34
2018-12-15T03:21:01.784Z,0.32
2018-12-15T03:23:31.928Z,0.41
2018-12-15T03:26:01.092Z,0.42
2018-12-15T03:28:30.952Z,0.41
2018-12-15T03:30:59.446Z,0.40
2018-12-15T03:33:28.621Z,0.38
2018-12-15T03:35:57.496Z,0.46
2018-12-15T03:38:26.932Z,0.46
2018-12-15T03:40:56.421Z,0.43
2018-12-15T03:46:11.198Z,0.44
2018-12-15T03:48:40.455Z,0.42
2018-12-15T03:51:09.578Z,0.45
2018-12-15T03:53:38.640Z,0.38
2018-12-15T03:56:07.306Z,0.22
2018-12-15T03:58:37.251Z,0.39
2018-12-15T04:01:06.256Z,0.41
2018-12-15T04:03:34.742Z,0.37
2018-12-15T04:06:04.645Z,0.33
2018-12-15T04:08:34.310Z,0.38
2018-12-15T04:11:02.769Z,0.43
2018-12-15T04:13:31.541Z,0.41
2018-12-15T04:16:00.700Z,0.45
2018-12-15T04:18:30.008Z,0.48
2018-12-15T04:20:59.464Z,0.40
2018-12-15T04:23:28.481Z,0.49
2018-12-15T04:25:57.712Z,0.33
2018-12-15T04:28:26.750Z,0.43
2018-12-15T04:30:57.567Z,0.40
2018-12-15T04:33:25.997Z,0.42
2018-12-15T04:35:54.432Z,0.39
2018-12-15T04:38:24.710Z,0.26
2018-12-15T04:40:53.181Z,0.36
2018-12-15T04:43:23.394Z,0.46
2018-12-15T04:45:54.202Z,0.43
2018-12-15T04:48:23.063Z,0.37
2018-12-15T04:50:53.803Z,0.47
2018-12-15T04:53:23.154Z,0.45
2018-12-15T04:55:52.483Z,0.47
2018-12-15T04:58:20.907Z,0.45
2018-12-15T05:00:50.664Z,0.45
2018-12-15T05:03:22.888Z,0.45
2018-12-15T05:05:53.405Z,0.39
2018-12-15T05:08:21.871Z,0.38
2018-12-15T05:10:51.150Z,0.33
2018-12-15T05:13:20.268Z,0.33
2018-12-15T05:15:49.272Z,0.38
2018-12-15T05:18:19.144Z,0.44
2018-12-15T05:20:48.483Z,0.44
2018-12-15T05:23:17.354Z,0.35
2018-12-15T05:25:47.417Z,0.40
2018-12-15T05:28:15.828Z,0.44
2018-12-15T05:30:44.274Z,0.39
2018-12-15T05:33:12.691Z,0.37
2018-12-15T05:35:41.135Z,0.40
2018-12-15T05:38:11.149Z,0.43
2018-12-15T05:40:40.718Z,0.35
2018-12-15T05:43:10.175Z,0.34
2018-12-15T05:45:40.142Z,0.36
2018-12-15T05:48:10.106Z,0.34
2018-12-15T05:50:38.538Z,0.27
2018-12-15T05:53:07.003Z,0.32
2018-12-15T05:55:35.475Z,0.33
2018-12-15T05:58:04.909Z,0.32
2018-12-15T06:00:33.564Z,0.41
2018-12-15T06:03:03.015Z,0.28
2018-12-15T06:05:33.094Z,0.32
2018-12-15T06:08:01.538Z,0.34
2018-12-15T06:10:31.355Z,0.33
2018-12-15T06:13:01.347Z,0.38
2018-12-15T06:15:30.895Z,0.29
2018-12-15T06:18:00.711Z,0.29
2018-12-15T06:20:29.884Z,0.35
2018-12-15T06:22:58.362Z,0.32
2018-12-15T06:25:27.237Z,0.39
2018-12-15T06:27:56.347Z,0.32
2018-12-15T06:30:24.805Z,0.32
2018-12-15T06:32:53.286Z,0.40
2018-12-15T06:35:22.685Z,0.32
2018-12-15T06:37:51.881Z,0.27
2018-12-15T06:40:20.717Z,0.39
2018-12-15T06:42:49.535Z,0.37
2018-12-15T06:45:19.381Z,0.42
2018-12-15T06:47:48.803Z,0.36
2018-12-15T06:50:17.800Z,0.35
2018-12-15T06:52:50.346Z,0.36
2018-12-15T06:55:20.429Z,0.39
2018-12-15T06:57:52.576Z,0.32
2018-12-15T07:00:26.938Z,0.32
2018-12-15T07:03:08.101Z,0.27
2018-12-15T07:05:45.743Z,0.35
2018-12-15T07:08:27.814Z,0.21
2018-12-15T07:11:00.696Z,0.21
2018-12-15T07:13:30.841Z,0.27
2018-12-15T07:16:05.886Z,0.23
2018-12-15T07:18:46.490Z,0.25
2018-12-15T07:21:15.925Z,0.30
2018-12-15T07:23:45.538Z,0.31
2018-12-15T07:26:19.022Z,0.38
2018-12-15T07:28:57.377Z,0.30
2018-12-15T07:31:31.702Z,0.33
2018-12-15T07:34:05.372Z,0.25
2018-12-15T07:39:16.330Z,0.28
2018-12-15T07:41:53.565Z,0.21
2018-12-15T07:44:27.238Z,0.27
2018-12-15T07:46:57.248Z,0.31
2018-12-15T07:49:26.762Z,0.30
2018-12-15T07:51:58.538Z,0.29
2018-12-15T07:54:31.013Z,0.36
2018-12-15T07:57:00.469Z,0.29
2018-12-15T07:59:34.134Z,0.29
2018-12-15T08:02:12.978Z,0.40
2018-12-15T08:04:46.850Z,0.39
2018-12-15T08:07:21.591Z,0.37
2018-12-15T08:09:59.891Z,0.33
2018-12-15T08:12:39.917Z,0.41
2018-12-15T08:15:12.570Z,0.35
2018-12-15T08:17:41.913Z,0.36
2018-12-15T08:20:11.288Z,0.36
2018-12-15T08:22:40.554Z,0.36
2018-12-15T08:25:10.792Z,0.37
2018-12-15T08:27:40.869Z,0.40
2018-12-15T08:30:23.452Z,0.35
2018-12-15T08:32:52.759Z,0.42
2018-12-15T08:35:29.696Z,0.35
2018-12-15T08:38:10.139Z,0.43
2018-12-15T08:41:02.102Z,0.36
2018-12-15T08:43:45.414Z,0.45
2018-12-15T08:46:18.795Z,0.45
2018-12-15T08:48:56.637Z,0.48
2018-12-15T08:51:32.628Z,0.47
2018-12-15T08:54:07.834Z,0.32
2018-12-15T08:56:39.827Z,0.47
2018-12-15T08:59:20.303Z,0.55
2018-12-15T09:01:55.279Z,0.52
2018-12-15T09:04:29.869Z,0.48
2018-12-15T09:07:03.754Z,0.49
2018-12-15T09:09:32.360Z,0.43
2018-12-15T09:12:00.801Z,0.45
2018-12-15T09:14:33.254Z,0.45
2018-12-15T09:17:02.654Z,0.45
2018-12-15T09:19:31.097Z,0.51
2018-12-15T09:21:59.914Z,0.57
2018-12-15T09:24:28.845Z,0.54
2018-12-15T09:26:58.847Z,0.50
2018-12-15T09:29:27.704Z,0.42
2018-12-15T09:31:58.073Z,0.51
2018-12-15T09:34:29.191Z,0.52
2018-12-15T09:36:59.396Z,0.43
2018-12-15T09:39:29.584Z,0.48
2018-12-15T09:42:00.345Z,0.49
2018-12-15T09:44:29.918Z,0.60
2018-12-15T09:47:02.482Z,0.54
2018-12-15T09:49:37.191Z,0.57
2018-12-15T09:52:10.205Z,0.51
2018-12-15T09:54:39.686Z,0.46
2018-12-15T09:57:10.884Z,0.41
2018-12-15T09:59:42.431Z,0.35
2018-12-15T10:02:11.622Z,0.42
2018-12-15T10:04:40.429Z,0.47
2018-12-15T10:07:09.165Z,0.57
2018-12-15T10:09:38.857Z,0.49
2018-12-15T10:12:09.017Z,0.50
2018-12-15T10:14:41.839Z,0.52
2018-12-15T10:17:14.604Z,0.49
2018-12-15T10:19:43.989Z,0.62
2018-12-15T10:22:13.186Z,0.46
2018-12-15T10:24:41.980Z,0.39
2018-12-15T10:27:10.447Z,0.51
2018-12-15T10:29:44.281Z,0.60
2018-12-15T10:32:17.810Z,0.57
2018-12-15T10:34:46.260Z,0.60
2018-12-15T10:37:15.973Z,0.59
2018-12-15T10:39:45.393Z,0.66
2018-12-15T10:42:24.840Z,0.65
2018-12-15T10:44:54.315Z,0.61
2018-12-15T10:47:28.707Z,0.64
2018-12-15T10:49:58.883Z,0.71
2018-12-15T10:52:31.203Z,0.78
2018-12-15T10:54:59.663Z,0.81
2018-12-15T10:57:28.195Z,0.68
2018-12-15T10:59:57.568Z,0.66
2018-12-15T11:02:26.802Z,0.55
2018-12-15T11:04:55.267Z,0.54
2018-12-15T11:07:23.721Z,0.58
2018-12-15T11:09:52.822Z,0.44
2018-12-15T11:12:21.729Z,0.59
2018-12-15T11:14:50.896Z,0.61
2018-12-15T11:17:22.927Z,0.53
2018-12-15T11:19:51.393Z,0.49
2018-12-15T11:22:20.090Z,0.40
2018-12-15T11:24:49.596Z,0.53
2018-12-15T11:27:18.726Z,0.51
2018-12-15T11:29:47.180Z,0.55
2018-12-15T11:32:16.343Z,0.45
2018-12-15T11:34:45.024Z,0.53
2018-12-15T11:37:14.328Z,0.52
2018-12-15T11:39:42.811Z,0.60
2018-12-15T11:42:11.632Z,0.64
2018-12-15T11:44:40.129Z,0.54
2018-12-15T11:47:08.948Z,0.51
2018-12-15T11:49:43.507Z,0.55
2018-12-15T11:52:08.165Z,0.55
2018-12-15T11:54:36.845Z,0.68
2018-12-15T11:57:05.272Z,0.61
2018-12-15T11:59:34.062Z,0.59
2018-12-15T12:02:02.713Z,0.59
2018-12-15T12:04:31.200Z,0.61
2018-12-15T12:06:59.674Z,0.71
2018-12-15T12:09:28.369Z,0.65
2018-12-15T12:11:57.362Z,0.59
2018-12-15T12:14:25.824Z,0.63
2018-12-15T12:16:54.269Z,0.55
2018-12-15T12:19:23.737Z,0.57
2018-12-15T12:21:52.884Z,0.37
2018-12-15T12:24:21.313Z,0.43
2018-12-15T12:26:49.795Z,0.56
2018-12-15T12:29:18.809Z,0.38
2018-12-15T12:31:47.251Z,0.46
2018-12-15T12:34:16.079Z,0.56
2018-12-15T12:36:44.958Z,0.54
2018-12-15T12:39:14.266Z,0.69
2018-12-15T12:41:42.715Z,0.65
2018-12-15T12:44:12.078Z,0.74
2018-12-15T12:46:40.743Z,0.69
2018-12-15T12:49:09.206Z,0.63
2018-12-15T12:51:38.704Z,0.52
2018-12-15T12:54:07.168Z,0.61
2018-12-15T12:56:35.655Z,0.58
2018-12-15T12:59:04.528Z,0.56
2018-12-15T13:01:39.258Z,0.47
2018-12-15T13:04:07.752Z,0.45
2018-12-15T13:06:38.647Z,0.41
2018-12-15T13:09:20.383Z,0.54
2018-12-15T13:11:52.533Z,0.44
2018-12-15T13:14:21.064Z,0.52
2018-12-15T13:16:50.032Z,0.59
2018-12-15T13:19:18.807Z,0.61
2018-12-15T13:21:51.515Z,0.55
2018-12-15T13:24:19.974Z,0.60
2018-12-15T13:26:50.019Z,0.57
2018-12-15T13:29:23.312Z,0.55
2018-12-15T13:31:53.712Z,0.59
2018-12-15T13:34:25.120Z,0.54
2018-12-15T13:36:54.635Z,0.59
2018-12-15T13:39:23.119Z,0.66
2018-12-15T13:41:51.635Z,0.71
2018-12-15T13:44:20.499Z,0.68
2018-12-15T13:46:49.437Z,0.62
2018-12-15T13:49:18.277Z,0.65
2018-12-15T13:51:46.761Z,0.51
2018-12-15T13:54:18.289Z,0.57
2018-12-15T13:56:47.260Z,0.60
2018-12-15T13:59:23.975Z,0.60
2018-12-15T14:01:54.536Z,0.63
2018-12-15T14:04:26.669Z,0.55
2018-12-15T14:06:59.353Z,0.47
2018-12-15T14:09:28.804Z,0.53
2018-12-15T14:12:00.154Z,0.50
2018-12-15T14:14:30.592Z,0.47
2018-12-15T14:17:13.071Z,0.42
2018-12-15T14:19:49.508Z,0.41
2018-12-15T14:22:18.598Z,0.28
2018-12-15T14:24:48.521Z,0.37
2018-12-15T14:27:19.741Z,0.29
2018-12-15T14:29:50.367Z,0.23
2018-12-15T14:32:20.266Z,0.22
2018-12-15T14:34:54.610Z,0.31
2018-12-15T14:37:23.950Z,0.26
2018-12-15T14:39:59.429Z,0.33
2018-12-15T14:43:00.443Z,0.28
2018-12-15T14:45:31.797Z,0.31
2018-12-15T14:48:08.859Z,0.25
2018-12-15T14:50:37.954Z,0.30
2018-12-15T14:53:08.812Z,0.25
2018-12-15T14:55:38.746Z,0.25
2018-12-15T14:58:09.871Z,0.27
2018-12-15T15:00:38.541Z,0.32
2018-12-15T15:03:08.170Z,0.25
2018-12-15T15:05:37.533Z,0.28
2018-12-15T15:08:08.626Z,0.30
2018-12-15T15:10:37.805Z,0.31
2018-12-15T15:13:06.411Z,0.37
2018-12-15T15:15:35.532Z,0.34
2018-12-15T15:18:17.922Z,0.35
2018-12-15T15:20:48.587Z,0.30
2018-12-15T15:23:19.057Z,0.24
2018-12-15T15:25:48.089Z,0.25
2018-12-15T15:28:17.255Z,0.21
2018-12-15T15:30:46.072Z,0.16
2018-12-15T15:33:14.514Z,0.19
2018-12-15T15:35:42.970Z,0.16
2018-12-15T15:38:11.447Z,0.11
2018-12-15T15:40:39.924Z,0.12
2018-12-15T15:43:09.742Z,0.20
2018-12-15T15:45:42.132Z,0.17
2018-12-15T15:48:13.448Z,0.10
2018-12-15T15:50:46.819Z,0.10
2018-12-15T15:53:24.967Z,0.04
2018-12-15T15:55:57.870Z,0.10
2018-12-15T15:58:32.254Z,0.12
2018-12-15T16:01:03.775Z,0.23
2018-12-15T16:03:36.029Z,0.20
2018-12-15T16:06:07.355Z,0.19
2018-12-15T16:08:37.963Z,0.16
2018-12-15T16:11:09.523Z,0.26
2018-12-15T16:13:40.698Z,0.14
2018-12-15T16:16:42.156Z,0.21
2018-12-15T16:19:13.396Z,0.19
2018-12-15T16:21:50.482Z,0.15
2018-12-15T16:24:21.347Z,0.01
2018-12-15T16:26:57.227Z,-0.11
2018-12-15T16:29:29.455Z,-0.10
2018-12-15T16:32:00.417Z,-0.05
2018-12-15T16:34:32.013Z,-0.08
2018-12-15T16:37:03.134Z,-0.09
2018-12-15T16:39:33.665Z,-0.13
2018-12-15T16:42:05.736Z,-0.13
2018-12-15T16:44:37.735Z,-0.15
2018-12-15T16:47:06.305Z,-0.12
2018-12-15T16:49:35.010Z,-0.15
2018-12-15T16:52:03.544Z,-0.24
2018-12-15T16:54:31.990Z,-0.26
2018-12-15T16:57:00.869Z,-0.22
2018-12-15T16:59:29.407Z,-0.21
2018-12-15T17:01:59.103Z,-0.26
2018-12-15T17:04:27.561Z,-0.24
2018-12-15T17:06:56.004Z,-0.23
2018-12-15T17:09:24.470Z,-0.25
2018-12-15T17:11:53.925Z,-0.24
2018-12-15T17:14:22.563Z,-0.28
2018-12-15T17:16:51.471Z,-0.26
2018-12-15T17:19:20.396Z,-0.28
2018-12-15T17:21:49.687Z,-0.26
2018-12-15T17:24:18.220Z,-0.28
2018-12-15T17:26:46.892Z,-0.24
2018-12-15T17:29:16.579Z,-0.27
2018-12-15T17:31:45.574Z,-0.30
2018-12-15T17:34:14.196Z,-0.40
2018-12-15T17:36:43.056Z,-0.44
2018-12-15T17:39:11.788Z,-0.53
2018-12-15T17:41:40.222Z,-0.40
2018-12-15T17:44:10.861Z,-0.40
2018-12-15T17:46:45.541Z,-0.39
2018-12-15T17:49:19.468Z,-0.54
2018-12-15T17:51:53.769Z,-0.53
2018-12-15T17:54:25.018Z,-0.50
2018-12-15T17:56:58.192Z,-0.47
2018-12-15T17:59:27.988Z,-0.50
2018-12-15T18:01:58.066Z,-0.45
2018-12-15T18:04:26.756Z,-0.45
2018-12-15T18:07:01.548Z,-0.42
2018-12-15T18:09:30.617Z,-0.49
2018-12-15T18:12:02.045Z,-0.50
2018-12-15T18:14:31.186Z,-0.54
2018-12-15T18:17:00.727Z,-0.51
2018-12-15T18:19:30.296Z,-0.52
2018-12-15T18:22:00.388Z,-0.71
2018-12-15T18:24:29.531Z,-0.64
2018-12-15T18:27:03.817Z,-0.61
2018-12-15T18:29:34.356Z,-0.71
2018-12-15T18:32:04.166Z,-0.66
2018-12-15T18:34:32.751Z,-0.73
2018-12-15T18:37:01.552Z,-0.71
2018-12-15T18:39:31.299Z,-0.67
2018-12-15T18:42:00.126Z,-0.67
2018-12-15T18:44:28.629Z,-0.59
2018-12-15T18:46:58.145Z,-0.71
2018-12-15T18:49:39.570Z,-0.80
2018-12-15T18:52:13.055Z,-0.85
2018-12-15T18:54:43.347Z,-0.70
2018-12-15T18:57:12.737Z,-0.67
2018-12-15T18:59:42.206Z,-0.64
2018-12-15T19:02:11.969Z,-0.63
2018-12-15T19:04:41.346Z,-0.67
2018-12-15T19:07:10.059Z,-0.67
2018-12-15T19:09:39.851Z,-0.75
2018-12-15T19:12:08.448Z,-0.64
2018-12-15T19:14:37.022Z,-0.68
2018-12-15T19:17:06.044Z,-0.75
2018-12-15T19:19:34.986Z,-0.75
2018-12-15T19:22:05.859Z,-0.84
2018-12-15T19:24:34.563Z,-0.76
2018-12-15T19:27:05.936Z,-0.84
2018-12-15T19:29:36.514Z,-0.77
2018-12-15T19:32:05.947Z,-0.76
2018-12-15T19:34:36.176Z,-0.77
2018-12-15T19:37:05.624Z,-0.73
2018-12-15T19:39:35.246Z,-0.69
2018-12-15T19:42:03.844Z,-0.78
2018-12-15T19:44:34.664Z,-0.78
2018-12-15T19:47:04.049Z,-0.81
2018-12-15T19:49:35.313Z,-0.81
2018-12-15T19:52:06.168Z,-0.85
2018-12-15T19:54:35.914Z,-0.89
2018-12-15T19:57:10.094Z,-0.91
2018-12-15T19:59:39.801Z,-0.84
2018-12-15T20:02:08.728Z,-0.84
2018-12-15T20:04:41.064Z,-0.87
2018-12-15T20:07:09.901Z,-0.84
2018-12-15T20:09:39.007Z,-0.84
2018-12-15T20:12:08.533Z,-0.90
2018-12-15T20:14:38.080Z,-0.91
2018-12-15T20:17:07.939Z,-1.00
2018-12-15T20:19:36.771Z,-0.97
2018-12-15T20:22:05.415Z,-0.97
2018-12-15T20:24:47.579Z,-1.00
2018-12-15T20:27:18.462Z,-1.10
2018-12-15T20:29:48.773Z,-1.10
2018-12-15T20:32:20.118Z,-1.04
2018-12-15T20:34:52.077Z,-1.01
2018-12-15T20:37:23.849Z,-1.06
2018-12-15T20:39:56.577Z,-1.08
2018-12-15T20:42:29.136Z,-1.18
2018-12-15T20:44:58.017Z,-1.13
2018-12-15T20:47:27.999Z,-1.36
2018-12-15T20:50:04.901Z,-1.31
2018-12-15T20:52:34.427Z,-1.27
2018-12-15T20:55:05.009Z,-1.30
2018-12-15T20:57:36.611Z,-1.35
2018-12-15T21:00:08.975Z,-1.29
2018-12-15T21:02:43.670Z,-1.29
2018-12-15T21:05:19.873Z,-1.38
2018-12-15T21:07:49.542Z,-1.30
2018-12-15T21:10:19.258Z,-1.31
2018-12-15T21:12:51.547Z,-1.36
2018-12-15T21:15:25.055Z,-1.36
2018-12-15T21:17:57.202Z,-1.43
2018-12-15T21:20:26.458Z,-1.55
2018-12-15T21:22:55.538Z,-1.54
2018-12-15T21:25:25.476Z,-1.52
2018-12-15T21:27:55.095Z,-1.63
2018-12-15T21:30:24.615Z,-1.69
2018-12-15T21:32:54.358Z,-1.62
2018-12-15T21:35:22.833Z,-1.69
2018-12-15T21:37:58.550Z,-1.68
2018-12-15T21:40:27.278Z,-1.75
2018-12-15T21:42:55.766Z,-1.77
2018-12-15T21:45:24.890Z,-1.80
2018-12-15T21:47:57.586Z,-1.76
2018-12-15T21:50:24.241Z,-1.87
2018-12-15T21:52:52.725Z,-1.91
2018-12-15T21:55:21.158Z,-1.91
2018-12-15T21:57:49.603Z,-1.97
2018-12-15T22:00:18.675Z,-1.98
2018-12-15T22:02:48.635Z,-2.06
2018-12-15T22:05:18.297Z,-2.07
2018-12-15T22:07:48.005Z,-2.06
2018-12-15T22:10:16.491Z,-2.05
2018-12-15T22:12:45.692Z,-2.03
2018-12-15T22:15:15.687Z,-2.11
2018-12-15T22:17:45.081Z,-2.12
2018-12-15T22:20:14.297Z,-2.14
2018-12-15T22:22:43.629Z,-2.14
2018-12-15T22:25:12.981Z,-2.16
2018-12-15T22:27:41.439Z,-2.19
2018-12-15T22:30:11.396Z,-2.22
2018-12-15T22:32:40.703Z,-2.28
2018-12-15T22:35:09.588Z,-2.40
2018-12-15T22:37:38.798Z,-2.47
2018-12-15T22:40:08.886Z,-2.45
2018-12-15T22:42:38.242Z,-2.44
2018-12-15T22:45:07.323Z,-2.50
2018-12-15T22:47:35.770Z,-2.57
2018-12-15T22:50:06.543Z,-2.63
2018-12-15T22:52:35.594Z,-2.59
2018-12-15T22:55:05.200Z,-2.69
2018-12-15T22:57:33.629Z,-2.71
2018-12-15T23:00:02.443Z,-2.80
2018-12-15T23:02:32.072Z,-2.74
2018-12-15T23:05:00.662Z,-2.74
2018-12-15T23:07:30.149Z,-2.76
2018-12-15T23:09:59.200Z,-2.80
2018-12-15T23:12:28.824Z,-2.73
2018-12-15T23:14:57.290Z,-2.65
2018-12-15T23:17:25.739Z,-2.63
2018-12-15T23:19:54.621Z,-2.64
2018-12-15T23:22:23.078Z,-2.59
2018-12-15T23:24:51.558Z,-2.57
2018-12-15T23:27:20.461Z,-2.54
2018-12-15T23:29:48.966Z,-2.50
2018-12-15T23:32:19.643Z,-2.55
2018-12-15T23:34:48.104Z,-2.55
2018-12-15T23:37:16.903Z,-2.58
2018-12-15T23:39:45.604Z,-2.53
2018-12-15T23:42:14.978Z,-2.52
2018-12-15T23:44:43.533Z,-2.39
2018-12-15T23:47:11.964Z,-2.35
2018-12-15T23:49:41.338Z,-2.35
2018-12-15T23:52:10.441Z,-2.25
2018-12-15T23:54:39.262Z,-2.26
2018-12-15T23:57:09.744Z,-2.17
2018-12-15T23:59:38.174Z,-2.20
